Aérodrome :
LOGIN :

S'inscrire | Disclaimer

   EN    FR    IT 

 










Légende :    VFR   VFR Marginal   IFR   IFR Intensif   IFR Très Intensif
Visi : 
Plafond : 
>= 8 km
>= 3000ft
5 à 8 km
1000 à 3000 ft
1500m à 5 km
500 à 1000 ft
800 à 1500m
200 à 500 ft
< 800m
< 200 ft
Symboles :   Orages  Brouillard  Fortes neiges  Fortes précipitations  Vent > 20 kt
SIGMETs :   Divers  Orages  Givrage  Turbulence  Onde Orograph.  Cendres Volcan.







- Altitude de l'aérodrome : 157 ft
- Code IATA : SXF


EDDB - Berlin Schönefeld

DERNIER METAR :
  • 262220Z 28007KT CAVOK 05/02 Q1026 NOSIG

METARs EXPIRÉS :
  • 262150Z 28006KT CAVOK 05/03 Q1026 NOSIG
  • 262120Z 29006KT CAVOK 06/02 Q1026 NOSIG
  • 262050Z 28006KT CAVOK 06/03 Q1026 NOSIG
  • 262020Z 28005KT CAVOK 06/02 Q1025 NOSIG
  • 261950Z 30005KT CAVOK 06/02 Q1025 NOSIG

TAF TAF EDDB
Valide du 26 à 18h jusqu'au 27 à 18h UTC


261700Z 2618/2718 30011KT 9999 BKN030
BECMG 2619/2621 29006KT
BECMG 2706/2708 27012KT
TEMPO 2709/2712 4500 -RA BKN014
TEMPO 2714/2715 27015G25KT
PROB30
TEMPO 2716/2718 4500 -RA BKN013
Pas de NOTAMs connus pour ce terrain.



MET'MAP, la Météo Aéronautique d'un coup d'oeil ! - Copyright ORBIFLY Décembre 2007 - Disclaimer

ORBIFLY MET'MAP TEAM :

Programmation & Développement : Alexandra Zaïnal
Conception & Développement : Baudouin d'Aumeries
Co-Programmation & Développement : Marc-Olivier Méhu
Soutien technique & logistique : Manuel Goepfert

Contact : metmap@orbifly.com




SOURCES & CREDITS :

   NOAA